This is the latest recevied weather packets stored in our database for station/object SP3ZBZ-13. If no packets are shown the sender has not sent any weather packets the latest 10 day(s).
| Time | Temp. | Humidity | Pressure | Rain* | Wind** | Luminosity | Snow |
|---|---|---|---|---|---|---|---|
| 1777618649 | 12.22° C | 54% | 1023.6 hPa | - | - | 331 W/m² | - |
| 1777617748 | 11.67° C | 57% | 1023.6 hPa | - | - | 283 W/m² | - |
| 1777616847 | 11.11° C | 60% | 1023.6 hPa | - | - | 243 W/m² | - |
| 1777615946 | 10.56° C | 61% | 1023.6 hPa | - | - | 208 W/m² | - |
| 1777615045 | 10° C | 61% | 1023.5 hPa | - | - | 172 W/m² | - |
| 1777614145 | 10.56° C | 61% | 1023.5 hPa | - | - | 137 W/m² | - |
| 1777613243 | 11.67° C | 57% | 1023.6 hPa | - | - | 104 W/m² | - |
| 1777612343 | 7.78° C | 69% | 1023.5 hPa | - | - | 76 W/m² | - |
| 1777611442 | 5.56° C | 75% | 1023.5 hPa | - | - | 59 W/m² | - |
| 1777610541 | 5° C | 78% | 1023.3 hPa | - | - | 46 W/m² | - |
| 1777609641 | 4.44° C | 80% | 1023.3 hPa | - | - | 37 W/m² | - |
| 1777608740 | 3.89° C | 81% | 1023.4 hPa | - | - | 28 W/m² | - |
| 1777607838 | 3.33° C | 83% | 1023.3 hPa | - | - | 18 W/m² | - |
| 1777606937 | 3.33° C | 84% | 1023.3 hPa | - | - | 9 W/m² | - |
| 1777606037 | 3.89° C | 84% | 1023.3 hPa | - | - | 4 W/m² | - |
| 1777605135 | 3.89° C | 83% | 1023.3 hPa | - | - | 1 W/m² | - |
| 1777604234 | 4.44° C | 81% | 1023.3 hPa | - | - | - | - |
| 1777603334 | 4.44° C | 80% | 1023.4 hPa | - | - | - | - |
| 1777602433 | 4.44° C | 80% | 1023.4 hPa | - | - | - | - |
| 1777601532 | 4.44° C | 81% | 1023.4 hPa | - | - | - | - |
| 1777600631 | 6.11° C | 74% | 1023.4 hPa | - | - | - | - |
| 1777599730 | 6.11° C | 71% | 1023.4 hPa | - | - | - | - |
| 1777598829 | 6.67° C | 71% | 1023.4 hPa | - | - | - | - |
| 1777597928 | 6.67° C | 71% | 1023.3 hPa | - | - | - | - |
| 1777597027 | 6.11° C | 72% | 1023.2 hPa | - | - | - | - |
* Rain since midnight (hover to see other rain measurements)
** Current wind speed in m/s (hover to see current wind gust speed)